Terminal Aerodrome Forecast
Issued by NWS

Home | Current Version | Previous Version | Text Only | Print | Product List | Glossary On
Versions: 1 2 3 4 5 6 7 8 9 10 11 12 13 14 15 16 17 18
102
FTUS46 KSEW 181122
TAFHQM
TAF
KHQM 181122Z 1812/1912 07009KT P6SM BKN030 OVC120
     FM181400 14020G30KT 4SM -RA SCT015 OVC022
     FM181800 18025G40KT 2SM RA BR SCT008 OVC012
     FM190300 19020G32KT 2SM -RA BR SCT008 OVC012
     FM190700 19012KT 4SM -RA SCT020 OVC040=

USA.gov is the U.S. government's official web portal to all federal, state and local government web resources and services.